Airfield :
LOGIN :

Register | Disclaimer

   EN    FR    IT 

 










Legend :    VFR   Marginal VFR   IFR   Intensive IFR   Very Intensive IFR
Visi :
Ceiling :
>= 8 km
>= 3000ft
5 to 8 km
1000 to 3000 ft
1500m to 5 km
500 to 1000 ft
800 to 1500m
200 to 500 ft
< 800m
< 200 ft
Symbols :   Thunderstorms  Fog  Heavy snow  Heavy precipitations  Wind > 20 kt
SIGMETs :     Misc.  Thunderstorms  Icing  Turbulence  Mountain Waves  Volcanic Ashes






- Airport Elevation : 74 ft
- IATA code : MRS


LFML - Marseille / Marignane

CURRENT METAR :
  • 201700Z AUTO 09005KT CAVOK 10/07 Q1011 NOSIG

EXPIRED METARs :
  • 201630Z AUTO 13005KT CAVOK 10/07 Q1011 NOSIG
  • 201600Z AUTO 12005KT CAVOK 11/07 Q1011 NOSIG
  • 201530Z AUTO 13006KT CAVOK 12/07 Q1011 NOSIG
  • 201500Z AUTO 14006KT 9999 SCT032 BKN039 BKN054 13/07 Q1011 NOSIG
  • 201430Z AUTO 07004KT 030V120 9999 SCT032 OVC040 13/07 Q1011 NOSIG

TAF AMD TAF LFML
Valid from the 20 at 16:00 until the 21 at 21:00 UTC


201621Z 2016/2121 13005KT 9999 FEW040 BKN260 TX14/2112Z TN07/2102Z
TEMPO 2017/2022 11010KT SCT045
TEMPO 2100/2107 10012KT -SHRA BKN040
BECMG 2107/2109 09010KT SCT050
TEMPO 2111/2121 13015KT 4000 SHRA BKN035TCU
PROB40
TEMPO 2113/2118 14020KT 3000 -TSRA SCT010 SCT020CB BKN035TCU
ATIS : +33 4 42 31 15 15



MET'MAP, your aeronautical weather chart ! - Copyright ORBIFLY December 2007 - Disclaimer

ORBIFLY MET'MAP TEAM :

Programming & Development : Alexandra Zaïnal
Concept & Development : Baudouin d'Aumeries
Co-Development & Prog : Marc-Olivier Méhu
Technical & hardware support : Manuel Goepfert

Contact : metmap@orbifly.com




SOURCES & CREDITS :

   NOAA